Time;durP1;ratioP1;P1;durP2;ratioP2;P2;SDS_P1;SDS_P2;PMS_P1;PMS_P2;Temp;Humidity;BMP_temperature;BMP_pressure;BME280_temperature;BME280_humidity;BME280_pressure;Samples;Min_cycle;Max_cycle;Signal;HPM_P1;HPM_P2
2023/08/28 00:02:02;;;;;;;2.75;0.98;;;13.70;99.90;;;;;;5085165;28;20028;-73
2023/08/28 00:04:28;;;;;;;2.30;1.02;;;13.70;99.90;;;;;;5089993;28;20092;-73
2023/08/28 00:06:53;;;;;;;2.53;1.02;;;13.70;99.90;;;;;;5087514;28;20035;-73
2023/08/28 00:09:19;;;;;;;4.15;1.23;;;13.70;99.90;;;;;;5087435;28;20040;-73
2023/08/28 00:11:44;;;;;;;3.63;1.00;;;13.80;99.90;;;;;;5103777;28;20035;-73
2023/08/28 00:14:10;;;;;;;4.53;1.10;;;13.80;99.90;;;;;;5088678;28;20207;-73
2023/08/28 00:16:36;;;;;;;3.60;1.25;;;13.80;99.90;;;;;;5088598;28;20059;-73
2023/08/28 00:19:02;;;;;;;1.88;1.05;;;13.80;99.90;;;;;;5090157;28;20417;-73
2023/08/28 00:21:29;;;;;;;4.30;1.25;;;13.80;99.90;;;;;;5107602;28;20051;-73
2023/08/28 00:23:55;;;;;;;1.67;0.95;;;13.80;99.90;;;;;;5088846;28;20081;-73
2023/08/28 00:26:20;;;;;;;2.00;1.08;;;13.80;99.90;;;;;;5089224;28;20032;-73
2023/08/28 00:28:46;;;;;;;1.75;1.08;;;13.80;99.90;;;;;;5086818;28;20040;-73
2023/08/28 00:31:12;;;;;;;4.75;1.60;;;13.80;99.90;;;;;;5071833;28;20051;-73
2023/08/28 00:33:37;;;;;;;5.93;1.30;;;13.80;99.90;;;;;;5087161;28;20040;-73
2023/08/28 00:36:03;;;;;;;4.50;1.50;;;13.80;99.90;;;;;;5072246;28;20117;-73
2023/08/28 00:38:29;;;;;;;2.50;1.17;;;13.80;99.90;;;;;;5088777;28;20357;-73
2023/08/28 00:40:54;;;;;;;3.05;1.70;;;13.80;99.90;;;;;;5089828;28;20035;-73
2023/08/28 00:43:20;;;;;;;3.67;1.88;;;13.80;99.90;;;;;;5108838;28;20027;-73
2023/08/28 00:45:47;;;;;;;3.95;1.23;;;13.80;99.90;;;;;;5090812;28;20412;-73
2023/08/28 00:48:17;;;;;;;2.30;1.40;;;13.80;99.90;;;;;;5093945;28;20554;-73
2023/08/28 00:50:44;;;;;;;6.32;2.05;;;13.80;99.90;;;;;;5087918;28;20336;-73
2023/08/28 00:53:11;;;;;;;2.83;1.58;;;13.70;99.90;;;;;;5086667;28;20040;-73
2023/08/28 00:55:37;;;;;;;3.40;1.30;;;13.70;99.90;;;;;;5103612;28;20040;-73
2023/08/28 00:58:03;;;;;;;2.45;1.20;;;13.70;99.90;;;;;;5084184;28;20404;-73
2023/08/28 01:00:29;;;;;;;2.25;1.33;;;13.70;99.90;;;;;;5080841;28;20055;-73
2023/08/28 01:02:55;;;;;;;3.38;1.58;;;13.70;99.90;;;;;;5104604;28;20032;-73
2023/08/28 01:05:45;;;;;;;4.07;1.38;;;13.60;99.90;;;;;;5104608;27;20122;-73
2023/08/28 01:08:47;;;;;;;3.50;1.38;;;13.60;99.90;;;;;;5104082;28;20039;-73
2023/08/28 01:11:41;;;;;;;2.85;1.60;;;13.60;99.90;;;;;;5084772;28;20047;-73
2023/08/28 01:14:26;;;;;;;5.70;1.52;;;13.60;99.90;;;;;;5103349;27;20035;-73
2023/08/28 01:17:03;;;;;;;2.90;1.55;;;13.60;99.90;;;;;;5104120;28;20457;-73
2023/08/28 01:19:35;;;;;;;3.47;1.60;;;13.60;99.90;;;;;;5085896;28;20389;-73
2023/08/28 01:22:20;;;;;;;5.10;1.60;;;13.60;99.90;;;;;;5085140;28;20119;-73
2023/08/28 01:24:51;;;;;;;3.17;1.50;;;13.60;99.90;;;;;;5086091;28;20035;-73
2023/08/28 01:27:18;;;;;;;3.40;1.45;;;13.50;99.90;;;;;;5066359;28;20127;-73
2023/08/28 01:29:43;;;;;;;4.20;1.55;;;13.50;99.90;;;;;;5102541;28;20487;-73
2023/08/28 01:32:09;;;;;;;2.65;1.38;;;13.50;99.90;;;;;;5070562;28;20120;-73
2023/08/28 01:34:38;;;;;;;3.35;1.30;;;13.50;99.90;;;;;;5103228;28;20492;-73
2023/08/28 01:37:11;;;;;;;2.38;1.20;;;13.50;99.90;;;;;;5116677;27;20039;-73
2023/08/28 01:39:43;;;;;;;3.83;1.45;;;13.50;99.90;;;;;;5086267;28;20514;-73
2023/08/28 01:42:09;;;;;;;2.03;1.25;;;13.50;99.90;;;;;;5067786;28;20510;-73
2023/08/28 01:44:36;;;;;;;3.33;1.40;;;13.50;99.90;;;;;;5109218;27;20050;-73
2023/08/28 01:47:03;;;;;;;4.28;1.50;;;13.50;99.90;;;;;;5090774;28;20565;-73
2023/08/28 01:49:29;;;;;;;2.92;1.13;;;13.40;99.90;;;;;;5108501;28;20031;-73
2023/08/28 01:51:55;;;;;;;2.83;1.48;;;13.40;99.90;;;;;;5103378;28;20119;-73
2023/08/28 01:54:22;;;;;;;3.20;1.23;;;13.40;99.90;;;;;;5084930;28;20514;-73
2023/08/28 01:56:48;;;;;;;2.20;1.27;;;13.40;99.90;;;;;;5082295;28;20485;-73
2023/08/28 01:59:14;;;;;;;2.25;1.50;;;13.40;99.90;;;;;;5082241;28;20496;-73
2023/08/28 02:01:40;;;;;;;2.63;1.55;;;13.40;99.90;;;;;;5085435;28;20042;-73
2023/08/28 02:04:06;;;;;;;2.33;1.48;;;13.40;99.90;;;;;;5102434;28;20040;-73
2023/08/28 02:06:32;;;;;;;3.75;2.10;;;13.30;99.90;;;;;;5103192;28;20030;-73
2023/08/28 02:08:57;;;;;;;4.95;1.70;;;13.30;99.90;;;;;;5083138;28;20115;-73
2023/08/28 02:11:23;;;;;;;3.42;1.83;;;13.30;99.90;;;;;;5104893;28;20067;-73
2023/08/28 02:13:48;;;;;;;4.55;1.60;;;13.30;99.90;;;;;;5080843;28;20047;-73
2023/08/28 02:16:17;;;;;;;5.40;1.77;;;13.30;99.90;;;;;;5085092;28;20059;-73
2023/08/28 02:18:43;;;;;;;4.70;1.90;;;13.30;99.90;;;;;;5084480;28;20074;-73
2023/08/28 02:21:08;;;;;;;3.50;1.75;;;13.30;99.90;;;;;;5102232;28;20481;-73
2023/08/28 02:23:34;;;;;;;3.35;1.73;;;13.20;99.90;;;;;;5083233;28;20512;-73
2023/08/28 02:25:59;;;;;;;3.75;1.77;;;13.30;99.90;;;;;;5099757;28;20112;-73
2023/08/28 02:28:25;;;;;;;4.68;2.15;;;13.20;99.90;;;;;;5085566;28;20068;-73
2023/08/28 02:30:51;;;;;;;4.07;1.75;;;13.20;99.90;;;;;;5101527;28;20040;-73
2023/08/28 02:33:17;;;;;;;6.05;1.77;;;13.20;99.90;;;;;;5083662;28;20465;-73
2023/08/28 02:35:43;;;;;;;4.22;2.20;;;13.20;99.90;;;;;;5084696;28;20050;-73
2023/08/28 02:38:10;;;;;;;4.43;2.15;;;13.20;99.90;;;;;;5084970;28;20137;-73
2023/08/28 02:40:37;;;;;;;4.15;2.17;;;13.20;99.90;;;;;;5067707;28;20043;-73
2023/08/28 02:43:05;;;;;;;4.68;2.80;;;13.20;99.90;;;;;;5083320;28;20367;-73
2023/08/28 02:45:35;;;;;;;6.18;2.60;;;13.20;99.90;;;;;;5103025;28;20497;-73
2023/08/28 02:48:03;;;;;;;4.88;2.33;;;13.10;99.90;;;;;;5103871;28;20197;-73
2023/08/28 02:50:29;;;;;;;9.20;2.40;;;13.10;99.90;;;;;;5083526;28;20370;-73
2023/08/28 02:52:54;;;;;;;5.55;2.38;;;13.10;99.90;;;;;;5102497;28;20035;-73
2023/08/28 02:55:20;;;;;;;7.25;2.70;;;13.10;99.90;;;;;;5102336;28;20112;-73
2023/08/28 02:57:45;;;;;;;5.72;2.60;;;13.10;99.90;;;;;;5099017;27;20074;-73
2023/08/28 03:00:12;;;;;;;5.57;2.90;;;13.10;99.90;;;;;;5101607;28;20035;-73
2023/08/28 03:02:37;;;;;;;4.30;2.38;;;13.10;99.90;;;;;;5100642;27;20044;-73
2023/08/28 03:05:03;;;;;;;4.70;2.80;;;13.10;99.90;;;;;;5096531;28;20076;-73
2023/08/28 03:07:29;;;;;;;4.25;2.35;;;13.20;99.90;;;;;;5084942;28;20096;-73
2023/08/28 03:09:54;;;;;;;5.80;2.55;;;13.10;99.90;;;;;;5084310;28;20508;-73
2023/08/28 03:12:20;;;;;;;7.70;3.47;;;13.10;99.90;;;;;;5083168;28;20091;-73
2023/08/28 03:14:46;;;;;;;5.47;2.75;;;13.10;99.90;;;;;;5082751;28;20042;-73
2023/08/28 03:17:11;;;;;;;7.35;3.00;;;13.10;99.90;;;;;;5103383;28;20138;-73
2023/08/28 03:19:37;;;;;;;5.53;2.63;;;13.00;99.90;;;;;;5082239;28;20051;-73
2023/08/28 03:22:03;;;;;;;4.50;2.58;;;13.00;99.90;;;;;;5098287;28;20265;-73
2023/08/28 03:24:28;;;;;;;4.07;2.50;;;13.00;99.90;;;;;;5103403;28;20071;-74
2023/08/28 03:26:54;;;;;;;4.93;2.65;;;13.00;99.90;;;;;;5101258;28;20046;-73
2023/08/28 03:29:19;;;;;;;6.22;3.08;;;13.00;99.90;;;;;;5084228;28;20040;-73
2023/08/28 03:31:45;;;;;;;10.27;3.33;;;13.00;99.90;;;;;;5083790;28;20043;-73
2023/08/28 03:34:10;;;;;;;4.80;2.90;;;13.00;99.90;;;;;;5102743;28;20459;-73
2023/08/28 03:36:36;;;;;;;5.97;2.97;;;13.00;99.90;;;;;;5085030;28;20039;-73
2023/08/28 03:39:02;;;;;;;7.68;2.70;;;13.00;99.90;;;;;;5085066;28;20032;-73
2023/08/28 03:41:28;;;;;;;7.15;3.30;;;13.00;99.90;;;;;;5102108;28;20122;-73
2023/08/28 03:43:53;;;;;;;4.95;2.78;;;13.00;99.90;;;;;;5109587;28;20504;-73
2023/08/28 03:46:19;;;;;;;5.97;2.78;;;13.00;99.90;;;;;;5092962;28;20036;-73
2023/08/28 03:48:44;;;;;;;6.32;2.90;;;13.00;99.90;;;;;;5108723;28;20032;-73
2023/08/28 03:51:10;;;;;;;6.72;3.03;;;13.00;99.90;;;;;;5087064;28;20032;-73
2023/08/28 03:53:35;;;;;;;6.57;2.88;;;13.00;99.90;;;;;;5106296;28;20047;-73
2023/08/28 03:56:01;;;;;;;8.63;2.60;;;13.00;99.90;;;;;;5086136;28;20050;-73
2023/08/28 03:58:27;;;;;;;4.78;2.60;;;13.00;99.90;;;;;;5100786;28;20036;-73
2023/08/28 04:00:55;;;;;;;6.95;2.83;;;13.00;99.90;;;;;;5088443;28;20118;-74
2023/08/28 04:03:21;;;;;;;5.95;2.67;;;13.00;99.90;;;;;;5083471;28;20028;-73
2023/08/28 04:05:48;;;;;;;4.82;2.63;;;13.00;99.90;;;;;;5104387;28;20039;-74
2023/08/28 04:08:14;;;;;;;4.72;2.63;;;13.00;99.90;;;;;;5086841;28;20156;-73
2023/08/28 04:10:39;;;;;;;3.47;2.08;;;13.00;99.90;;;;;;5069232;28;20031;-73
2023/08/28 04:13:05;;;;;;;3.95;1.90;;;13.00;99.90;;;;;;5105538;28;20092;-73
2023/08/28 04:15:31;;;;;;;4.07;2.25;;;12.90;99.90;;;;;;5087016;28;20532;-73
2023/08/28 04:17:59;;;;;;;7.63;2.25;;;12.90;99.90;;;;;;5087776;28;20039;-74
2023/08/28 04:20:25;;;;;;;4.15;2.10;;;12.90;99.90;;;;;;5082121;28;20267;-73
2023/08/28 04:22:50;;;;;;;2.80;1.40;;;12.90;99.90;;;;;;5104899;28;20385;-73
2023/08/28 04:25:16;;;;;;;4.65;1.30;;;12.90;99.90;;;;;;5085537;28;20485;-73
2023/08/28 04:27:41;;;;;;;2.88;1.50;;;12.90;99.90;;;;;;5105298;28;20087;-73
2023/08/28 04:30:09;;;;;;;3.25;1.67;;;12.80;99.90;;;;;;5085735;28;20110;-73
2023/08/28 04:32:35;;;;;;;3.38;1.80;;;12.80;99.90;;;;;;5085539;28;20084;-73
2023/08/28 04:35:01;;;;;;;3.75;1.63;;;12.80;99.90;;;;;;5106085;28;20040;-73
2023/08/28 04:37:27;;;;;;;3.92;1.88;;;12.80;99.90;;;;;;5082977;28;20160;-73
2023/08/28 04:39:53;;;;;;;3.92;2.00;;;12.80;99.90;;;;;;5083418;28;20036;-73
2023/08/28 04:42:19;;;;;;;4.35;2.00;;;12.70;99.90;;;;;;5104477;28;20038;-73
2023/08/28 04:44:45;;;;;;;4.05;2.28;;;12.70;99.90;;;;;;5105434;28;20028;-73
2023/08/28 04:47:13;;;;;;;5.00;2.58;;;12.70;99.90;;;;;;5086015;28;20120;-73
2023/08/28 04:49:39;;;;;;;3.17;2.05;;;12.80;99.90;;;;;;5086316;28;20050;-73
2023/08/28 04:52:05;;;;;;;4.97;2.40;;;12.70;99.90;;;;;;5104882;28;20473;-73
2023/08/28 04:54:30;;;;;;;5.25;2.47;;;12.70;99.90;;;;;;5087035;28;20446;-73
2023/08/28 04:56:57;;;;;;;4.95;2.00;;;12.70;99.90;;;;;;5083980;28;20040;-73
2023/08/28 04:59:23;;;;;;;3.78;1.98;;;12.70;99.90;;;;;;5087095;28;20433;-73
2023/08/28 05:01:49;;;;;;;5.47;2.33;;;12.60;99.90;;;;;;5103725;28;20039;-73
2023/08/28 05:04:14;;;;;;;3.53;2.10;;;12.70;99.90;;;;;;5106163;28;20036;-73
2023/08/28 05:06:40;;;;;;;5.10;2.92;;;12.70;99.90;;;;;;5086335;28;20473;-73
2023/08/28 05:09:05;;;;;;;6.93;2.20;;;12.80;99.90;;;;;;5105066;27;20406;-73
2023/08/28 05:11:31;;;;;;;5.30;2.30;;;12.80;99.90;;;;;;5082676;28;20659;-73
2023/08/28 05:13:57;;;;;;;4.65;2.70;;;12.70;99.90;;;;;;5118260;27;20050;-73
2023/08/28 05:16:23;;;;;;;5.47;3.30;;;12.80;99.90;;;;;;5105242;28;21951;-73
2023/08/28 05:18:49;;;;;;;5.38;2.35;;;12.80;99.90;;;;;;5086094;28;20398;-73
2023/08/28 05:21:14;;;;;;;6.05;2.65;;;12.80;99.90;;;;;;5104211;28;20051;-73
2023/08/28 05:23:40;;;;;;;5.60;2.80;;;12.80;99.90;;;;;;5067306;28;20067;-73
2023/08/28 05:26:05;;;;;;;6.50;2.95;;;12.80;99.90;;;;;;5086330;28;20159;-73
2023/08/28 05:28:34;;;;;;;7.30;2.63;;;12.80;99.90;;;;;;5085497;28;20445;-73
2023/08/28 05:31:00;;;;;;;5.70;2.75;;;12.80;99.90;;;;;;5085248;28;20074;-73
2023/08/28 05:33:26;;;;;;;5.90;2.83;;;12.80;99.90;;;;;;5085292;28;20071;-73
2023/08/28 05:35:51;;;;;;;4.63;2.38;;;12.90;99.90;;;;;;5072246;28;20175;-73
2023/08/28 05:38:17;;;;;;;4.90;2.55;;;12.90;99.90;;;;;;5091604;28;20063;-73
2023/08/28 05:40:43;;;;;;;3.85;2.28;;;12.90;99.90;;;;;;5086070;28;20058;-74
2023/08/28 05:43:08;;;;;;;5.00;2.60;;;12.90;99.90;;;;;;5084599;28;20079;-73
2023/08/28 05:45:34;;;;;;;4.13;1.85;;;12.90;99.90;;;;;;5108817;28;20120;-73
2023/08/28 05:48:00;;;;;;;4.40;2.00;;;13.00;99.90;;;;;;5072938;28;20039;-73
2023/08/28 05:50:25;;;;;;;5.22;2.40;;;13.00;99.90;;;;;;5107104;28;20070;-73
2023/08/28 05:52:51;;;;;;;7.45;2.42;;;13.00;99.90;;;;;;5087222;28;20035;-73
2023/08/28 05:55:16;;;;;;;6.80;2.45;;;13.00;99.90;;;;;;5084588;28;20047;-73
2023/08/28 05:57:42;;;;;;;5.75;2.78;;;13.10;99.90;;;;;;5105203;27;20488;-73
2023/08/28 06:00:08;;;;;;;5.15;2.85;;;13.10;99.90;;;;;;5105094;27;20035;-73
2023/08/28 06:02:34;;;;;;;5.15;2.53;;;13.10;99.90;;;;;;5084946;28;20122;-73
2023/08/28 06:05:00;;;;;;;6.93;2.65;;;13.10;99.90;;;;;;5083665;28;20115;-73
2023/08/28 06:07:26;;;;;;;3.85;2.22;;;13.10;99.90;;;;;;5082902;28;20031;-73
2023/08/28 06:09:51;;;;;;;6.53;3.17;;;13.10;99.90;;;;;;5088866;28;20105;-73
2023/08/28 06:12:17;;;;;;;5.03;2.45;;;13.10;99.90;;;;;;5087606;28;20047;-73
2023/08/28 06:14:43;;;;;;;5.88;2.58;;;13.10;99.90;;;;;;5079254;28;20058;-73
2023/08/28 06:17:09;;;;;;;8.20;2.97;;;13.20;99.90;;;;;;5097995;28;20036;-73
2023/08/28 06:19:34;;;;;;;7.72;2.63;;;13.20;99.90;;;;;;5084548;28;20119;-74
2023/08/28 06:22:04;;;;;;;5.95;2.72;;;13.20;99.90;;;;;;5096566;27;20061;-73
2023/08/28 06:24:30;;;;;;;5.50;2.50;;;13.30;99.90;;;;;;5103948;28;20043;-74
2023/08/28 06:26:55;;;;;;;7.50;2.75;;;13.30;99.90;;;;;;5080210;28;20051;-73
2023/08/28 06:29:21;;;;;;;5.20;2.80;;;13.30;99.90;;;;;;5098640;28;20035;-73
2023/08/28 06:31:46;;;;;;;9.48;3.17;;;13.30;99.90;;;;;;5067115;28;20042;-74
2023/08/28 06:34:14;;;;;;;6.18;3.08;;;13.30;99.90;;;;;;5084642;28;20468;-75
2023/08/28 06:36:40;;;;;;;7.60;2.80;;;13.30;99.90;;;;;;5081479;28;20393;-74
2023/08/28 06:39:07;;;;;;;4.15;2.40;;;13.40;99.90;;;;;;5085129;28;20075;-74
2023/08/28 06:41:32;;;;;;;6.88;2.83;;;13.40;99.90;;;;;;5082278;28;20108;-74
2023/08/28 06:43:58;;;;;;;4.88;3.00;;;13.40;99.90;;;;;;5100213;28;20370;-74
2023/08/28 06:46:24;;;;;;;6.00;2.90;;;13.50;99.90;;;;;;5083220;28;20107;-74
2023/08/28 06:48:52;;;;;;;7.15;2.67;;;13.50;99.90;;;;;;5080176;28;20035;-74
2023/08/28 06:51:19;;;;;;;5.78;2.63;;;13.60;99.90;;;;;;5065158;28;20047;-74
2023/08/28 06:53:44;;;;;;;6.07;2.78;;;13.60;99.90;;;;;;5082898;28;20500;-74
2023/08/28 06:56:10;;;;;;;4.63;2.15;;;13.60;99.90;;;;;;5082599;28;20028;-74
2023/08/28 06:58:36;;;;;;;5.65;2.80;;;13.70;99.90;;;;;;5096389;28;20043;-74
2023/08/28 07:01:02;;;;;;;7.15;2.65;;;13.70;99.90;;;;;;5079954;28;20840;-74
2023/08/28 07:03:27;;;;;;;4.60;2.33;;;13.80;99.90;;;;;;5083331;28;20039;-74
2023/08/28 07:05:53;;;;;;;7.30;3.15;;;13.90;99.90;;;;;;5094779;28;20073;-74
2023/08/28 07:08:18;;;;;;;6.13;2.97;;;13.90;99.90;;;;;;5099792;28;20060;-74
2023/08/28 07:10:44;;;;;;;5.53;2.80;;;14.00;99.90;;;;;;5084692;28;20048;-74
2023/08/28 07:13:10;;;;;;;5.65;2.63;;;14.00;99.90;;;;;;5084440;28;20048;-74
2023/08/28 07:15:35;;;;;;;6.07;2.78;;;14.10;99.90;;;;;;5101013;28;20122;-74
2023/08/28 07:18:01;;;;;;;8.43;2.83;;;14.10;99.90;;;;;;5084872;28;20071;-74
2023/08/28 07:20:26;;;;;;;6.57;2.72;;;14.20;99.90;;;;;;5082305;28;20323;-74
2023/08/28 07:22:53;;;;;;;5.25;2.90;;;14.30;99.90;;;;;;5084440;28;20504;-74
2023/08/28 07:25:22;;;;;;;6.22;3.10;;;14.30;99.90;;;;;;5100941;28;20054;-74
2023/08/28 07:27:49;;;;;;;6.88;2.70;;;14.40;99.90;;;;;;5113698;28;20040;-74
2023/08/28 07:30:15;;;;;;;6.35;2.80;;;14.40;99.90;;;;;;5083647;28;20112;-74
2023/08/28 07:32:40;;;;;;;7.45;3.00;;;14.50;99.90;;;;;;5072666;28;20118;-74
2023/08/28 07:35:07;;;;;;;5.55;2.47;;;14.50;99.90;;;;;;5086055;28;20039;-72
2023/08/28 07:37:36;;;;;;;4.63;2.30;;;14.60;99.90;;;;;;5086391;28;20038;-74
2023/08/28 07:40:04;;;;;;;4.90;2.20;;;14.60;99.90;;;;;;5068836;28;20062;-74
2023/08/28 07:42:30;;;;;;;6.05;2.00;;;14.70;99.90;;;;;;5072096;28;20600;-74
2023/08/28 07:44:55;;;;;;;4.60;2.00;;;14.70;99.90;;;;;;5067322;28;20189;-74
2023/08/28 07:47:21;;;;;;;5.60;2.55;;;14.80;99.90;;;;;;5105201;28;20035;-74
2023/08/28 07:49:47;;;;;;;3.45;1.98;;;14.80;99.90;;;;;;5085626;28;20034;-74
2023/08/28 07:52:13;;;;;;;6.78;2.33;;;14.90;99.90;;;;;;5084819;28;20118;-75
2023/08/28 07:54:38;;;;;;;5.22;2.00;;;14.90;99.90;;;;;;5087587;28;20040;-74
2023/08/28 07:57:04;;;;;;;4.20;1.70;;;15.00;99.90;;;;;;5107955;28;20092;-75
2023/08/28 07:59:30;;;;;;;3.53;1.85;;;15.00;99.90;;;;;;5088727;28;20093;-74
2023/08/28 08:01:57;;;;;;;3.42;2.00;;;15.10;99.90;;;;;;5089317;28;20032;-74
2023/08/28 08:04:23;;;;;;;5.68;1.80;;;15.10;99.90;;;;;;5087667;28;20575;-74
2023/08/28 08:06:49;;;;;;;4.20;1.80;;;15.20;99.90;;;;;;5107274;28;20378;-74
2023/08/28 08:09:14;;;;;;;3.42;1.63;;;15.20;99.90;;;;;;5087673;28;20058;-75
2023/08/28 08:11:40;;;;;;;6.22;1.55;;;15.30;99.90;;;;;;5099760;28;20503;-74
2023/08/28 08:14:06;;;;;;;4.38;1.50;;;15.30;99.90;;;;;;5089419;28;20040;-74
2023/08/28 08:16:31;;;;;;;4.43;1.33;;;15.40;99.90;;;;;;5087807;28;20031;-74
2023/08/28 08:18:57;;;;;;;3.72;1.65;;;15.50;99.90;;;;;;5086929;28;20508;-74
2023/08/28 08:21:23;;;;;;;2.22;1.30;;;15.50;99.90;;;;;;5087651;28;20224;-74
2023/08/28 08:23:49;;;;;;;3.35;1.48;;;15.60;99.90;;;;;;5108460;28;20430;-74
2023/08/28 08:26:15;;;;;;;3.75;1.17;;;15.60;99.90;;;;;;5093248;28;20043;-74
2023/08/28 08:28:41;;;;;;;3.63;1.50;;;15.60;99.90;;;;;;5111315;28;20031;-74
2023/08/28 08:31:07;;;;;;;3.72;1.20;;;15.70;99.90;;;;;;5089430;28;22199;-75
2023/08/28 08:33:33;;;;;;;1.60;0.98;;;15.70;99.90;;;;;;5087528;28;20462;-75
2023/08/28 08:35:58;;;;;;;5.10;1.27;;;15.70;99.90;;;;;;5102116;28;20035;-74
2023/08/28 08:38:24;;;;;;;2.30;0.93;;;15.80;99.90;;;;;;5091319;28;20035;-75
2023/08/28 08:40:54;;;;;;;1.67;0.80;;;15.80;99.90;;;;;;5091267;28;20044;-74
2023/08/28 08:43:20;;;;;;;2.13;0.80;;;15.80;99.90;;;;;;5092468;28;20032;-75
2023/08/28 08:45:49;;;;;;;3.28;0.98;;;15.80;99.90;;;;;;5090995;28;20028;-75
2023/08/28 08:48:18;;;;;;;1.08;0.70;;;15.90;99.90;;;;;;5076262;28;20028;-75
2023/08/28 08:50:47;;;;;;;1.38;0.75;;;15.90;99.90;;;;;;5087283;28;20051;-75
2023/08/28 08:53:27;;;;;;;2.63;0.70;;;15.90;99.90;;;;;;5088277;28;20044;-75
2023/08/28 08:55:57;;;;;;;1.65;0.68;;;15.90;99.90;;;;;;5092027;28;20046;-75
2023/08/28 08:58:24;;;;;;;1.30;0.60;;;16.00;99.90;;;;;;5091784;28;20538;-75
2023/08/28 09:00:50;;;;;;;3.28;0.60;;;16.00;99.90;;;;;;5091251;28;20040;-75
2023/08/28 09:03:17;;;;;;;1.83;0.80;;;16.10;99.90;;;;;;5086482;28;20491;-74
2023/08/28 09:05:44;;;;;;;2.05;0.50;;;16.10;99.90;;;;;;5092299;28;20727;-75
2023/08/28 09:08:10;;;;;;;1.10;0.60;;;16.10;99.90;;;;;;5090012;28;20032;-74
2023/08/28 09:10:35;;;;;;;1.60;0.63;;;16.20;99.90;;;;;;5092468;28;20047;-74
2023/08/28 09:13:02;;;;;;;1.52;0.70;;;16.20;99.90;;;;;;5109247;28;20126;-75
2023/08/28 09:15:27;;;;;;;1.98;0.60;;;16.30;99.90;;;;;;5108741;28;20046;-75
2023/08/28 09:17:53;;;;;;;1.33;0.50;;;16.30;99.90;;;;;;5091970;28;20044;-75
2023/08/28 09:20:21;;;;;;;1.58;0.38;;;16.40;99.90;;;;;;5088809;28;20603;-75
2023/08/28 09:22:51;;;;;;;1.08;0.60;;;16.40;99.90;;;;;;5075587;28;20040;-75
2023/08/28 09:25:18;;;;;;;2.88;0.50;;;16.30;99.90;;;;;;5103980;27;20036;-78
2023/08/28 09:27:45;;;;;;;0.77;0.40;;;16.30;99.90;;;;;;5062726;28;20036;-76
2023/08/28 09:30:25;;;;;;;0.70;0.43;;;16.20;99.90;;;;;;5082187;28;20074;-76
2023/08/28 09:32:51;;;;;;;0.50;0.25;;;16.10;99.90;;;;;;5107987;28;20088;-76
2023/08/28 09:35:19;;;;;;;0.80;0.40;;;16.10;99.90;;;;;;5083099;28;20039;-76
2023/08/28 09:37:54;;;;;;;1.77;0.60;;;16.10;99.90;;;;;;5072580;28;20499;-76
2023/08/28 09:40:29;;;;;;;0.82;0.40;;;16.00;99.90;;;;;;5087192;28;20046;-75
2023/08/28 09:42:55;;;;;;;1.15;0.50;;;16.10;99.90;;;;;;5100009;27;20035;-76
2023/08/28 09:45:20;;;;;;;0.50;0.20;;;16.20;99.90;;;;;;5101931;27;20496;-76
2023/08/28 09:47:53;;;;;;;0.82;0.40;;;16.20;99.90;;;;;;5088040;28;20028;-74
2023/08/28 09:50:32;;;;;;;0.40;0.30;;;16.30;99.90;;;;;;5079323;28;20400;-77
2023/08/28 09:53:09;;;;;;;1.50;0.32;;;16.40;99.90;;;;;;5104314;28;20036;-77
2023/08/28 09:55:51;;;;;;;1.73;0.47;;;16.40;99.90;;;;;;5089492;28;20081;-77
2023/08/28 09:58:18;;;;;;;1.70;0.50;;;16.50;99.90;;;;;;5084925;28;20145;-77
2023/08/28 10:00:44;;;;;;;1.15;0.50;;;16.50;99.90;;;;;;5103497;28;20036;-76
2023/08/28 10:03:14;;;;;;;0.63;0.30;;;16.60;99.90;;;;;;5072277;28;20484;-76
2023/08/28 10:05:43;;;;;;;3.03;0.50;;;16.60;99.90;;;;;;5091460;28;20046;-74
2023/08/28 10:08:11;;;;;;;1.35;0.30;;;16.70;99.90;;;;;;5087792;28;20047;-76
2023/08/28 10:10:39;;;;;;;0.73;0.30;;;16.80;99.90;;;;;;5087938;28;20046;-74
2023/08/28 10:13:06;;;;;;;2.65;0.50;;;16.90;99.90;;;;;;5105749;28;20521;-74
2023/08/28 10:15:34;;;;;;;1.10;0.40;;;16.90;99.90;;;;;;5096697;28;20638;-74
2023/08/28 10:18:06;;;;;;;0.75;0.40;;;16.90;99.90;;;;;;5069420;28;20027;-74
2023/08/28 10:20:34;;;;;;;0.68;0.40;;;16.90;99.90;;;;;;5079853;28;20543;-74
2023/08/28 10:23:01;;;;;;;1.17;0.40;;;16.90;99.90;;;;;;5069123;28;20122;-74
2023/08/28 10:25:29;;;;;;;1.13;0.50;;;16.90;99.90;;;;;;5082313;28;20039;-74
2023/08/28 10:27:56;;;;;;;0.73;0.47;;;16.80;99.90;;;;;;5104290;28;20040;-75
2023/08/28 10:30:24;;;;;;;1.50;0.55;;;16.80;99.90;;;;;;5089117;28;20044;-74
2023/08/28 10:32:51;;;;;;;1.85;0.43;;;16.90;99.90;;;;;;5083392;28;20088;-74
2023/08/28 10:35:19;;;;;;;0.95;0.40;;;16.90;99.90;;;;;;5103818;28;20066;-74
2023/08/28 10:37:46;;;;;;;0.73;0.30;;;17.00;99.90;;;;;;5082262;28;20114;-74
2023/08/28 10:40:12;;;;;;;0.80;0.40;;;17.00;99.90;;;;;;5082517;28;20509;-75
2023/08/28 10:42:39;;;;;;;1.40;0.47;;;17.00;99.90;;;;;;5070239;28;20032;-75
2023/08/28 10:45:05;;;;;;;2.60;0.40;;;17.00;99.90;;;;;;5100022;28;20036;-74
2023/08/28 10:47:31;;;;;;;1.35;0.40;;;17.10;99.90;;;;;;5088077;28;20105;-74
2023/08/28 10:49:56;;;;;;;0.73;0.22;;;17.10;99.90;;;;;;5086708;28;20478;-74
2023/08/28 10:52:23;;;;;;;0.98;0.40;;;17.20;99.90;;;;;;5067495;28;20058;-75
2023/08/28 10:54:50;;;;;;;0.20;0.20;;;17.20;99.90;;;;;;5107120;28;20043;-75
2023/08/28 10:57:27;;;;;;;0.90;0.50;;;17.40;99.90;;;;;;5101687;28;20038;-74
2023/08/28 10:59:53;;;;;;;0.52;0.30;;;17.50;99.90;;;;;;5083908;28;20165;-74
2023/08/28 11:02:20;;;;;;;1.02;0.30;;;17.60;99.90;;;;;;5086854;28;20035;-75
2023/08/28 11:04:46;;;;;;;0.38;0.30;;;17.60;99.90;;;;;;5106630;28;20545;-74
2023/08/28 11:07:21;;;;;;;1.05;0.30;;;17.60;99.90;;;;;;5065882;28;20085;-74
2023/08/28 11:09:47;;;;;;;1.95;0.30;;;17.60;99.90;;;;;;5069654;28;20032;-75
2023/08/28 11:12:16;;;;;;;0.15;0.15;;;17.60;99.90;;;;;;5084747;28;20662;-74
2023/08/28 11:14:54;;;;;;;1.55;0.40;;;17.70;99.90;;;;;;5074287;28;20039;-75
2023/08/28 11:17:22;;;;;;;0.45;0.22;;;17.70;99.90;;;;;;5085514;28;20405;-75
2023/08/28 11:19:53;;;;;;;4.15;0.30;;;17.80;99.90;;;;;;5067776;28;20064;-74
2023/08/28 11:22:35;;;;;;;2.50;0.30;;;17.70;99.90;;;;;;5081381;28;20117;-74
2023/08/28 11:25:04;;;;;;;0.50;0.30;;;17.70;99.90;;;;;;5101906;28;20035;-74
2023/08/28 11:27:49;;;;;;;1.98;0.40;;;17.60;99.90;;;;;;5105658;28;20086;-73
2023/08/28 11:30:19;;;;;;;0.45;0.30;;;17.60;99.90;;;;;;5076181;28;20474;-74
2023/08/28 11:32:47;;;;;;;1.25;0.35;;;17.60;99.90;;;;;;5088406;28;20046;-74
2023/08/28 11:35:17;;;;;;;0.90;0.30;;;17.60;99.90;;;;;;5111726;28;20067;-74
2023/08/28 11:38:03;;;;;;;0.93;0.22;;;17.60;99.90;;;;;;5081230;28;20100;-74
2023/08/28 11:40:29;;;;;;;1.10;0.43;;;17.60;99.90;;;;;;5084808;28;20497;-74
2023/08/28 11:43:08;;;;;;;0.55;0.40;;;17.70;99.90;;;;;;5084259;28;20028;-74
2023/08/28 11:45:34;;;;;;;0.65;0.30;;;17.70;99.90;;;;;;5085528;28;20699;-74
2023/08/28 11:48:04;;;;;;;1.20;0.32;;;17.70;99.90;;;;;;5102957;28;20028;-74
2023/08/28 11:50:30;;;;;;;0.55;0.30;;;17.80;99.90;;;;;;5104512;28;20036;-74
2023/08/28 11:52:55;;;;;;;0.75;0.20;;;17.90;99.90;;;;;;5101127;28;20085;-73
2023/08/28 11:55:21;;;;;;;0.60;0.32;;;17.90;99.90;;;;;;5106044;28;20024;-74
2023/08/28 11:57:50;;;;;;;0.40;0.22;;;17.80;99.90;;;;;;5082428;27;20032;-74
2023/08/28 12:00:17;;;;;;;1.10;0.20;;;17.80;99.90;;;;;;5107356;28;20028;-74
2023/08/28 12:02:45;;;;;;;1.23;0.32;;;17.80;99.90;;;;;;5102868;28;20031;-73
2023/08/28 12:05:12;;;;;;;1.38;0.40;;;17.70;99.90;;;;;;5090732;28;20036;-74
2023/08/28 12:07:42;;;;;;;0.55;0.30;;;17.70;99.90;;;;;;5092496;28;20404;-74
2023/08/28 12:10:09;;;;;;;1.55;0.20;;;17.60;99.90;;;;;;5091262;28;20396;-73
2023/08/28 12:12:36;;;;;;;0.57;0.20;;;17.50;99.90;;;;;;5103725;28;20039;-74
2023/08/28 12:15:03;;;;;;;1.42;0.20;;;17.50;99.90;;;;;;5103172;27;20517;-74
2023/08/28 12:17:29;;;;;;;1.25;0.25;;;17.50;99.90;;;;;;5071392;28;20317;-74
2023/08/28 12:19:55;;;;;;;1.02;0.30;;;17.40;99.90;;;;;;5082091;28;20059;-74
2023/08/28 12:22:21;;;;;;;0.40;0.20;;;17.40;99.90;;;;;;5082994;28;20058;-74
2023/08/28 12:24:49;;;;;;;2.40;0.38;;;17.30;99.90;;;;;;5085364;28;20036;-74
2023/08/28 12:27:17;;;;;;;1.13;0.30;;;17.30;99.90;;;;;;5086350;28;20032;-74
2023/08/28 12:29:43;;;;;;;0.13;0.10;;;17.30;99.90;;;;;;5105498;28;20032;-74
2023/08/28 12:32:16;;;;;;;0.52;0.30;;;17.40;99.90;;;;;;5066632;28;20409;-74
2023/08/28 12:34:43;;;;;;;1.20;0.30;;;17.40;99.90;;;;;;5083212;28;20073;-74
2023/08/28 12:37:11;;;;;;;0.38;0.20;;;17.50;99.90;;;;;;5105206;28;20047;-74
2023/08/28 12:39:45;;;;;;;0.25;0.15;;;17.60;99.90;;;;;;5068729;28;20040;-74
2023/08/28 12:42:12;;;;;;;2.40;0.45;;;17.60;99.90;;;;;;5082721;28;20039;-74
2023/08/28 12:44:40;;;;;;;0.50;0.30;;;17.50;99.90;;;;;;5103064;28;20075;-73
2023/08/28 12:47:06;;;;;;;0.88;0.30;;;17.60;99.90;;;;;;5099686;27;20512;-74
2023/08/28 12:49:32;;;;;;;0.57;0.30;;;17.60;99.90;;;;;;5081637;27;20065;-74